• Join FlightAware (Why Join?)
  • Login
  • US Flag 
02:21PM EDT


 

Airport Tracker/Info


-or-


 

Live Flight TrackerFlight Track Log ✈ ASQ3813 ✈ 14-Jun-2013 ✈ KORD - CYWG

Flight Track Log - Related Links

Times and Time Zones

All times are in EDT time to prevent confusion due to time zone crossing. See the ASQ3813 flight status page for this flight to view local times or setup timezone preferences in your user account.

Time Position Orientation Groundspeed Altitude Reporting Facility
EDT Latitude Longitude Course Direction KTS MPH feet Rate Location/Type
09:31PM 42.0333 -87.9500 346° North 201 231 2,900  Level Chicago TRACON
09:33PM 42.2716 -87.9971 350° North  Level FlightAware Approximate
09:33PM 42.1447 -87.9061 16° North 254 292 5,400  Level Chicago Center
09:34PM 42.3738 -88.0285 340° North  Level FlightAware Approximate
09:34PM 42.2150 -87.8731 19° North 267 307 7,900  Level Chicago Center
09:35PM 42.4753 -88.0617 352° North  Level FlightAware Approximate
09:35PM 42.2758 -87.8064 39° Northeast 283 326 10,000  Level Chicago Center
09:36PM 42.5734 -88.1022 346° North  Level FlightAware Approximate
09:36PM 42.3592 -87.7822 12° North 284 327 11,800  Level Chicago Center
09:37PM 42.4403 -87.7822 360° North 288 331 13,500 1,620 Climbing Chicago Center
09:38PM 42.5147 -87.8161 341° North 289 333 15,200 1,560 Climbing Chicago Center
09:39PM 42.5850 -87.8711 330° Northwest 289 333 16,800 1,200 Climbing Chicago Center
09:40PM 42.6589 -87.9283 330° Northwest 299 344 17,700 960 Climbing Chicago Center
09:41PM 42.7494 -87.9994 330° Northwest 319 367 18,800 960 Climbing Chicago Center
09:42PM 42.8306 -88.0614 331° Northwest 332 382 19,800 960 Climbing Chicago Center
09:43PM 42.9139 -88.1269 330° Northwest 341 392 20,800 960 Climbing Chicago Center
09:44PM 42.9983 -88.1928 330° Northwest 347 399 21,800 900 Climbing Chicago Center
09:45PM 43.0842 -88.2586 331° Northwest 350 403 22,700 900 Climbing Chicago Center
09:46PM 43.1672 -88.3328 327° Northwest 355 409 23,700 960 Climbing Chicago Center
09:47PM 43.2489 -88.4133 324° Northwest 357 411 24,700 1,020 Climbing Chicago Center
09:48PM 43.3444 -88.5094 324° Northwest 361 415 25,800 900 Climbing Chicago Center
09:49PM 43.4178 -88.5806 325° Northwest 363 418 26,600 960 Climbing Chicago Center
09:50PM 43.5133 -88.6781 324° Northwest 367 422 27,800 1,020 Climbing Chicago Center
09:51PM 43.5928 -88.7550 325° Northwest 354 407 28,800 1,020 Climbing Chicago Center
09:52PM 43.6708 -88.8336 324° Northwest 347 399 29,900 1,020 Climbing Chicago Center
09:53PM 43.7472 -88.9103 324° Northwest 341 392 31,000 1,020 Climbing Chicago Center
09:54PM 43.8247 -88.9881 324° Northwest 342 394 32,000 480 Climbing Chicago Center
09:55PM 43.9039 -89.0683 324° Northwest 350 403 32,000  Level Chicago Center
09:56PM 44.0022 -89.1683 324° Northwest 374 430 32,000  Level Minneapolis Center
09:57PM 44.0775 -89.2444 324° Northwest 391 450 32,000  Level Chicago Center
09:58PM 44.1797 -89.3508 323° Northwest 393 452 32,000  Level Chicago Center
09:59PM 44.1786 -89.3506 170° South 393 452 32,000  Level Minneapolis Center
10:00PM 44.2956 -89.4672 324° Northwest 388 447 32,000  Level Minneapolis Center
10:01PM 44.3808 -89.5572 323° Northwest 385 443 32,000  Level Minneapolis Center
10:02PM 44.4819 -89.6628 323° Northwest 387 445 32,000  Level Minneapolis Center
10:03PM 44.5686 -89.7533 323° Northwest 389 448 32,000  Level Minneapolis Center
10:04PM 44.6561 -89.8439 324° Northwest 391 450 32,000  Level Minneapolis Center
10:05PM 44.7725 -89.9672 323° Northwest 393 452 32,000  Level Minneapolis Center
10:06PM 44.8658 -90.0633 324° Northwest 398 458 32,000  Level Minneapolis Center
10:07PM 44.9536 -90.1575 323° Northwest 397 457 32,000  Level Minneapolis Center
10:08PM 45.0419 -90.2517 323° Northwest 398 458 32,000  Level Minneapolis Center
10:09PM 45.1294 -90.3444 323° Northwest 395 455 32,000  Level Minneapolis Center
10:10PM 45.2006 -90.4211 323° Northwest 398 458 32,000  Level Minneapolis Center
10:11PM 45.2889 -90.5150 323° Northwest 396 456 32,000  Level Minneapolis Center
10:12PM 45.3944 -90.6289 323° Northwest 397 457 32,000  Level Minneapolis Center
10:13PM 45.4819 -90.7233 323° Northwest 395 455 32,000  Level Minneapolis Center
10:14PM 45.5681 -90.8186 322° Northwest 391 450 32,000  Level Minneapolis Center
10:15PM 45.6383 -90.8936 323° Northwest 392 451 32,000  Level Minneapolis Center
10:16PM 45.7597 -91.0275 322° Northwest 393 452 32,000  Level Minneapolis Center
10:17PM 45.8458 -91.1225 322° Northwest 390 449 32,000  Level Minneapolis Center
10:19PM 45.9322 -91.2183 322° Northwest 391 450 32,000  Level Minneapolis Center
10:20PM 46.0175 -91.3125 323° Northwest 388 447 32,000  Level Minneapolis Center
10:21PM 46.1033 -91.4086 322° Northwest 388 447 32,000  Level Minneapolis Center
10:22PM 46.1892 -91.5053 322° Northwest 390 449 32,000  Level Minneapolis Center
10:23PM 46.2792 -91.6053 322° Northwest 390 449 32,000  Level Minneapolis Center
10:24PM 46.3647 -91.7028 322° Northwest 392 451 32,000  Level Minneapolis Center
10:25PM 46.4506 -91.7989 322° Northwest 391 450 32,000  Level Minneapolis Center
10:26PM 46.5353 -91.8961 322° Northwest 391 450 32,000  Level Minneapolis Center
10:27PM 46.6214 -91.9936 322° Northwest 392 451 32,000 180 Level Minneapolis Center
10:28PM 46.7222 -92.1103 322° Northwest 390 449 32,400 540 Climbing Minneapolis Center
10:29PM 46.7903 -92.1889 322° Northwest 390 449 33,200 960 Climbing Minneapolis Center
10:30PM 46.8872 -92.3061 320° Northwest 384 442 34,400 1,020 Climbing Minneapolis Center
10:31PM 46.9656 -92.4036 320° Northwest 374 430 35,300 780 Climbing Minneapolis Center
10:32PM 47.0436 -92.5014 320° Northwest 371 427 36,000 300 Climbing Minneapolis Center
10:33PM 47.1236 -92.6000 320° Northwest 375 432 36,000  Level Minneapolis Center
10:34PM 47.2072 -92.7042 320° Northwest 388 447 36,000  Level Minneapolis Center
10:35PM 47.2917 -92.8081 320° Northwest 397 457 36,000  Level Minneapolis Center
10:36PM 47.3919 -92.9314 320° Northwest 397 457 36,000  Level Minneapolis Center
10:37PM 47.4908 -93.0561 320° Northwest 398 458 36,000  Level Minneapolis Center
10:38PM 47.5703 -93.1628 318° Northwest 395 455 36,000  Level Minneapolis Center
10:39PM 47.6522 -93.2661 320° Northwest 393 452 36,000  Level Minneapolis Center
10:40PM 47.7353 -93.3722 319° Northwest 397 457 36,000  Level Minneapolis Center
10:41PM 47.8350 -93.5011 319° Northwest 400 460 36,000  Level Minneapolis Center
10:42PM 47.9189 -93.6114 319° Northwest 404 465 36,000  Level Minneapolis Center
10:43PM 48.0028 -93.7189 319° Northwest 400 460 36,000  Level Minneapolis Center
10:44PM 48.0858 -93.8286 319° Northwest 400 460 36,000  Level Minneapolis Center
10:46PM 48.1700 -93.9383 319° Northwest 402 463 36,000  Level Minneapolis Center
10:47PM 48.2722 -94.0725 319° Northwest 405 466 36,000  Level Minneapolis Center
10:48PM 48.3567 -94.1864 318° Northwest 408 470 36,000  Level Minneapolis Center
10:49PM 48.4414 -94.2989 319° Northwest 408 470 36,000  Level Minneapolis Center
10:50PM 48.5453 -94.4367 319° Northwest 413 475 36,000  Level Minneapolis Center
10:51PM 48.6303 -94.5536 318° Northwest 415 478 36,000 -60 Level Minneapolis Center
10:52PM 48.7142 -94.6667 318° Northwest 409 471 35,900  Descending Minneapolis Center
10:53PM 48.7986 -94.7814 318° Northwest 409 471 36,000  Climbing Minneapolis Center
10:54PM 48.8969 -94.9197 317° Northwest 406 467 36,000  Level Minneapolis Center
10:55PM 48.9333 -94.9833 311° West 400 460 36,000 -180 Level Winnipeg Center
10:56PM 49.0167 -95.0833 322° Northwest 390 449 35,800 -900 Descending Winnipeg Center
10:57PM 49.1000 -95.2000 318° Northwest 400 460 34,200 -1,920 Descending Winnipeg Center
10:58PM 49.1833 -95.3000 322° Northwest 380 437 32,000 -2,100 Descending Winnipeg Center
10:59PM 49.2500 -95.4000 316° Northwest 380 437 30,000 -2,280 Descending Winnipeg Center
11:00PM 49.3333 -95.5333 314° West 390 449 27,500 -2,460 Descending Winnipeg Center
11:01PM 49.4000 -95.6333 316° Northwest 390 449 25,100 -2,580 Descending Winnipeg Center
11:02PM 49.4833 -95.7500 318° Northwest 400 460 22,400 -2,640 Descending Winnipeg Center
11:03PM 49.5500 -95.8833 308° West 390 449 19,900 -2,700 Descending Winnipeg Center
11:04PM 49.5833 -96.0333 289° West 360 414 17,000 -2,760 Descending Winnipeg Center
11:05PM 49.6333 -96.1667 300° West 350 403 14,400 -2,700 Descending Winnipeg Center
11:06PM 49.6667 -96.3167 289° West 330 380 11,700 -2,040 Descending Winnipeg Center
11:07PM 49.7167 -96.4167 308° West 310 357 10,400 -1,320 Descending Winnipeg Center
11:08PM 49.7500 -96.5000 302° West 270 311 9,100 -1,500 Descending Winnipeg Center
11:09PM 49.8000 -96.6000 308° West 260 299 7,400 -1,620 Descending Winnipeg Center
11:10PM 49.8500 -96.6833 313° West 260 299 5,900 -1,560 Descending Winnipeg Center
11:11PM 49.9000 -96.7500 319° Northwest 260 299 4,300 -1,200 Descending Winnipeg Center
11:12PM 49.9333 -96.8333 302° West 240 276 3,500 -420 Descending Winnipeg Center
11:13PM 49.9833 -96.9167 313° West 220 253 3,500  Level Winnipeg Center
11:14PM 50.0167 -97.0000 302° West 220 253 3,500  Level Winnipeg Center
11:15PM 50.0500 -97.0667 308° West 220 253 3,500  Level Winnipeg Center